sensor_id;sensor_type;location;lat;lon;timestamp;pressure;altitude;pressure_sealevel;temperature;humidity
20955;BME280;10636;19.390;-99.256;2023-05-23T00:01:54;78010.28;;;25.35;48.56
20955;BME280;10636;19.390;-99.256;2023-05-23T00:04:25;78009.59;;;25.34;48.34
20955;BME280;10636;19.390;-99.256;2023-05-23T00:06:54;78011.53;;;25.32;48.29
20955;BME280;10636;19.390;-99.256;2023-05-23T00:09:23;78020.81;;;25.28;48.22
20955;BME280;10636;19.390;-99.256;2023-05-23T00:11:51;78010.06;;;25.28;48.26
20955;BME280;10636;19.390;-99.256;2023-05-23T00:14:21;78020.13;;;25.28;48.17
20955;BME280;10636;19.390;-99.256;2023-05-23T00:16:52;78026.09;;;25.26;48.56
20955;BME280;10636;19.390;-99.256;2023-05-23T00:19:21;78016.75;;;25.27;48.16
20955;BME280;10636;19.390;-99.256;2023-05-23T00:21:52;78028.78;;;25.26;48.03
20955;BME280;10636;19.390;-99.256;2023-05-23T00:24:31;78032.75;;;25.25;48.27
20955;BME280;10636;19.390;-99.256;2023-05-23T00:27:02;78043.50;;;25.25;48.13
20955;BME280;10636;19.390;-99.256;2023-05-23T00:29:31;78029.94;;;25.21;48.02
20955;BME280;10636;19.390;-99.256;2023-05-23T00:31:59;78041.38;;;25.22;47.89
20955;BME280;10636;19.390;-99.256;2023-05-23T00:34:28;78054.09;;;25.21;47.96
20955;BME280;10636;19.390;-99.256;2023-05-23T00:37:01;78067.53;;;25.21;47.66
20955;BME280;10636;19.390;-99.256;2023-05-23T00:39:30;78059.38;;;25.19;48.01
20955;BME280;10636;19.390;-99.256;2023-05-23T00:42:03;78072.09;;;25.19;47.80
20955;BME280;10636;19.390;-99.256;2023-05-23T00:44:35;78071.34;;;25.16;48.27
20955;BME280;10636;19.390;-99.256;2023-05-23T00:47:15;78068.72;;;25.18;47.66
20955;BME280;10636;19.390;-99.256;2023-05-23T00:49:44;78055.25;;;25.16;47.65
20955;BME280;10636;19.390;-99.256;2023-05-23T00:52:14;78059.16;;;25.13;47.85
20955;BME280;10636;19.390;-99.256;2023-05-23T00:54:46;78069.13;;;25.11;48.13
20955;BME280;10636;19.390;-99.256;2023-05-23T00:57:16;78088.50;;;25.09;48.27
20955;BME280;10636;19.390;-99.256;2023-05-23T00:59:44;78070.84;;;25.04;48.17
20955;BME280;10636;19.390;-99.256;2023-05-23T01:02:13;78075.03;;;25.07;48.43
20955;BME280;10636;19.390;-99.256;2023-05-23T01:04:45;78076.31;;;25.06;48.46
20955;BME280;10636;19.390;-99.256;2023-05-23T01:07:15;78084.19;;;25.02;48.79
20955;BME280;10636;19.390;-99.256;2023-05-23T01:09:51;78086.09;;;24.99;49.17
20955;BME280;10636;19.390;-99.256;2023-05-23T01:12:24;78081.34;;;24.98;48.96
20955;BME280;10636;19.390;-99.256;2023-05-23T01:15:02;78086.63;;;24.96;49.17
20955;BME280;10636;19.390;-99.256;2023-05-23T01:17:37;78058.84;;;24.71;48.89
20955;BME280;10636;19.390;-99.256;2023-05-23T01:20:10;78093.22;;;24.93;49.24
20955;BME280;10636;19.390;-99.256;2023-05-23T01:23:02;78097.88;;;24.92;49.24
20955;BME280;10636;19.390;-99.256;2023-05-23T01:25:53;78090.34;;;24.89;49.28
20955;BME280;10636;19.390;-99.256;2023-05-23T01:28:36;78078.34;;;24.90;48.86
20955;BME280;10636;19.390;-99.256;2023-05-23T01:31:07;78075.50;;;24.86;48.99
20955;BME280;10636;19.390;-99.256;2023-05-23T01:33:39;78086.53;;;24.94;48.80
20955;BME280;10636;19.390;-99.256;2023-05-23T01:36:08;78095.81;;;24.91;48.85
20955;BME280;10636;19.390;-99.256;2023-05-23T01:38:40;78103.63;;;24.85;48.73
20955;BME280;10636;19.390;-99.256;2023-05-23T01:41:10;78103.38;;;24.78;48.74
20955;BME280;10636;19.390;-99.256;2023-05-23T01:43:43;78108.47;;;24.72;48.42
20955;BME280;10636;19.390;-99.256;2023-05-23T01:46:12;78114.38;;;24.69;48.58
20955;BME280;10636;19.390;-99.256;2023-05-23T01:48:41;78112.91;;;24.66;48.48
20955;BME280;10636;19.390;-99.256;2023-05-23T01:51:13;78121.47;;;24.62;48.98
20955;BME280;10636;19.390;-99.256;2023-05-23T01:53:42;78128.84;;;24.62;49.00
20955;BME280;10636;19.390;-99.256;2023-05-23T01:56:11;78132.19;;;24.62;49.04
20955;BME280;10636;19.390;-99.256;2023-05-23T01:58:42;78141.72;;;24.65;48.89
20955;BME280;10636;19.390;-99.256;2023-05-23T02:01:11;78107.69;;;24.36;48.65
20955;BME280;10636;19.390;-99.256;2023-05-23T02:03:39;78151.41;;;24.72;48.41
20955;BME280;10636;19.390;-99.256;2023-05-23T02:06:08;78151.41;;;24.72;48.37
20955;BME280;10636;19.390;-99.256;2023-05-23T02:08:37;78162.13;;;24.72;48.74
20955;BME280;10636;19.390;-99.256;2023-05-23T02:11:06;78169.47;;;24.72;48.40
20955;BME280;10636;19.390;-99.256;2023-05-23T02:13:36;78176.66;;;24.67;49.21
20955;BME280;10636;19.390;-99.256;2023-05-23T02:16:06;78169.66;;;24.60;49.42
20955;BME280;10636;19.390;-99.256;2023-05-23T02:18:34;78172.28;;;24.58;49.42
20955;BME280;10636;19.390;-99.256;2023-05-23T02:21:06;78177.47;;;24.54;49.67
20955;BME280;10636;19.390;-99.256;2023-05-23T02:23:35;78174.78;;;24.54;49.61
20955;BME280;10636;19.390;-99.256;2023-05-23T02:26:03;78174.09;;;24.54;50.09
20955;BME280;10636;19.390;-99.256;2023-05-23T02:28:34;78182.75;;;24.52;49.81
20955;BME280;10636;19.390;-99.256;2023-05-23T02:31:09;78195.53;;;24.54;49.95
20955;BME280;10636;19.390;-99.256;2023-05-23T02:33:37;78195.00;;;24.57;49.69
20955;BME280;10636;19.390;-99.256;2023-05-23T02:36:06;78189.66;;;24.57;50.00
20955;BME280;10636;19.390;-99.256;2023-05-23T02:38:34;78186.88;;;24.55;49.68
20955;BME280;10636;19.390;-99.256;2023-05-23T02:41:03;78199.09;;;24.58;49.80
20955;BME280;10636;19.390;-99.256;2023-05-23T02:43:32;78195.00;;;24.57;49.87
20955;BME280;10636;19.390;-99.256;2023-05-23T02:46:08;78190.88;;;24.54;49.64
20955;BME280;10636;19.390;-99.256;2023-05-23T02:48:38;78181.44;;;24.53;49.67
20955;BME280;10636;19.390;-99.256;2023-05-23T02:51:07;78194.75;;;24.51;49.68
20955;BME280;10636;19.390;-99.256;2023-05-23T02:53:35;78189.50;;;24.53;50.15
20955;BME280;10636;19.390;-99.256;2023-05-23T02:56:04;78192.06;;;24.51;50.14
20955;BME280;10636;19.390;-99.256;2023-05-23T02:58:33;78186.88;;;24.55;49.85
20955;BME280;10636;19.390;-99.256;2023-05-23T03:01:02;78188.38;;;24.58;49.62
20955;BME280;10636;19.390;-99.256;2023-05-23T03:03:32;78184.28;;;24.57;49.33
20955;BME280;10636;19.390;-99.256;2023-05-23T03:06:01;78182.91;;;24.56;49.53
20955;BME280;10636;19.390;-99.256;2023-05-23T03:08:32;78175.66;;;24.59;48.91
20955;BME280;10636;19.390;-99.256;2023-05-23T03:11:01;78185.00;;;24.58;48.67
20955;BME280;10636;19.390;-99.256;2023-05-23T03:13:29;78186.88;;;24.55;49.13
20955;BME280;10636;19.390;-99.256;2023-05-23T03:15:58;78157.63;;;24.30;49.04
20955;BME280;10636;19.390;-99.256;2023-05-23T03:18:26;78187.06;;;24.59;48.77
20955;BME280;10636;19.390;-99.256;2023-05-23T03:20:59;78181.69;;;24.59;48.72
20955;BME280;10636;19.390;-99.256;2023-05-23T03:23:28;78185.69;;;24.58;49.00
20955;BME280;10636;19.390;-99.256;2023-05-23T03:25:57;78194.25;;;24.55;49.22
20955;BME280;10636;19.390;-99.256;2023-05-23T03:28:26;78197.53;;;24.53;49.45
20955;BME280;10636;19.390;-99.256;2023-05-23T03:30:54;78200.28;;;24.55;49.23
20955;BME280;10636;19.390;-99.256;2023-05-23T03:33:23;78203.06;;;24.57;49.88
20955;BME280;10636;19.390;-99.256;2023-05-23T03:35:51;78196.41;;;24.58;49.47
20955;BME280;10636;19.390;-99.256;2023-05-23T03:38:21;78197.78;;;24.59;49.26
20955;BME280;10636;19.390;-99.256;2023-05-23T03:40:50;78201.16;;;24.60;49.49
20955;BME280;10636;19.390;-99.256;2023-05-23T03:43:18;78199.16;;;24.60;49.85
20955;BME280;10636;19.390;-99.256;2023-05-23T03:45:47;78200.53;;;24.61;49.33
20955;BME280;10636;19.390;-99.256;2023-05-23T03:48:15;78188.38;;;24.58;49.78
20955;BME280;10636;19.390;-99.256;2023-05-23T03:50:44;78202.03;;;24.64;49.31
20955;BME280;10636;19.390;-99.256;2023-05-23T03:53:15;78195.34;;;24.65;49.03
20955;BME280;10636;19.390;-99.256;2023-05-23T03:55:45;78192.06;;;24.67;49.70
20955;BME280;10636;19.390;-99.256;2023-05-23T03:58:16;78179.63;;;24.58;49.57
20955;BME280;10636;19.390;-99.256;2023-05-23T04:00:45;78192.94;;;24.71;49.48
20955;BME280;10636;19.390;-99.256;2023-05-23T04:03:20;78196.91;;;24.70;49.32
20955;BME280;10636;19.390;-99.256;2023-05-23T04:05:49;78194.91;;;24.71;49.66
20955;BME280;10636;19.390;-99.256;2023-05-23T04:08:18;78196.22;;;24.70;49.58
20955;BME280;10636;19.390;-99.256;2023-05-23T04:10:49;78192.16;;;24.69;49.43
20955;BME280;10636;19.390;-99.256;2023-05-23T04:13:17;78195.53;;;24.69;49.53
20955;BME280;10636;19.390;-99.256;2023-05-23T04:15:46;78199.53;;;24.68;49.78
20955;BME280;10636;19.390;-99.256;2023-05-23T04:18:14;78213.69;;;24.71;49.41
20955;BME280;10636;19.390;-99.256;2023-05-23T04:20:43;78208.34;;;24.71;49.53
20955;BME280;10636;19.390;-99.256;2023-05-23T04:23:11;78205.03;;;24.72;49.28
20955;BME280;10636;19.390;-99.256;2023-05-23T04:25:40;78202.34;;;24.72;49.70
20955;BME280;10636;19.390;-99.256;2023-05-23T04:28:10;78200.34;;;24.73;49.59
20955;BME280;10636;19.390;-99.256;2023-05-23T04:30:39;78206.44;;;24.73;49.64
20955;BME280;10636;19.390;-99.256;2023-05-23T04:33:08;78200.34;;;24.73;49.79
20955;BME280;10636;19.390;-99.256;2023-05-23T04:35:37;78201.06;;;24.73;49.25
20955;BME280;10636;19.390;-99.256;2023-05-23T04:38:05;78199.66;;;24.72;49.44
20955;BME280;10636;19.390;-99.256;2023-05-23T04:40:34;78202.28;;;24.70;49.47
20955;BME280;10636;19.390;-99.256;2023-05-23T04:43:02;78160.94;;;24.44;49.50
20955;BME280;10636;19.390;-99.256;2023-05-23T04:45:32;78203.66;;;24.71;49.13
20955;BME280;10636;19.390;-99.256;2023-05-23T04:48:01;78185.00;;;24.58;49.04
20955;BME280;10636;19.390;-99.256;2023-05-23T04:50:30;78201.06;;;24.73;49.08
20955;BME280;10636;19.390;-99.256;2023-05-23T04:52:59;78208.41;;;24.73;49.49
20955;BME280;10636;19.390;-99.256;2023-05-23T04:55:28;78215.75;;;24.72;49.20
20955;BME280;10636;19.390;-99.256;2023-05-23T04:57:57;78213.09;;;24.72;49.18
20955;BME280;10636;19.390;-99.256;2023-05-23T05:00:26;78197.69;;;24.73;49.32
20955;BME280;10636;19.390;-99.256;2023-05-23T05:02:57;78201.66;;;24.72;49.18
20955;BME280;10636;19.390;-99.256;2023-05-23T05:05:25;78208.34;;;24.71;49.35
20955;BME280;10636;19.390;-99.256;2023-05-23T05:07:54;78209.72;;;24.72;48.84
20955;BME280;10636;19.390;-99.256;2023-05-23T05:10:22;78203.66;;;24.71;49.19
20955;BME280;10636;19.390;-99.256;2023-05-23T05:12:50;78198.28;;;24.71;48.81
20955;BME280;10636;19.390;-99.256;2023-05-23T05:15:19;78197.59;;;24.71;49.16
20955;BME280;10636;19.390;-99.256;2023-05-23T05:17:47;78203.66;;;24.71;48.88
20955;BME280;10636;19.390;-99.256;2023-05-23T05:20:17;78198.28;;;24.71;48.96
20955;BME280;10636;19.390;-99.256;2023-05-23T05:22:53;78194.22;;;24.70;49.14
20955;BME280;10636;19.390;-99.256;2023-05-23T05:25:22;78187.38;;;24.67;49.12
20955;BME280;10636;19.390;-99.256;2023-05-23T05:27:52;78188.09;;;24.68;49.20
20955;BME280;10636;19.390;-99.256;2023-05-23T05:30:21;78187.38;;;24.67;49.16
20955;BME280;10636;19.390;-99.256;2023-05-23T05:32:49;78189.47;;;24.69;49.26
20955;BME280;10636;19.390;-99.256;2023-05-23T05:35:19;78186.13;;;24.68;48.64
20955;BME280;10636;19.390;-99.256;2023-05-23T05:37:50;78190.06;;;24.67;48.95
20955;BME280;10636;19.390;-99.256;2023-05-23T05:40:19;78183.31;;;24.66;48.88
20955;BME280;10636;19.390;-99.256;2023-05-23T05:42:47;78184.03;;;24.67;49.14
20955;BME280;10636;19.390;-99.256;2023-05-23T05:45:16;78187.31;;;24.65;48.67
20955;BME280;10636;19.390;-99.256;2023-05-23T05:47:45;78181.94;;;24.65;49.11
20955;BME280;10636;19.390;-99.256;2023-05-23T05:50:13;78186.63;;;24.65;49.06
20955;BME280;10636;19.390;-99.256;2023-05-23T05:52:43;78181.88;;;24.63;48.71
20955;BME280;10636;19.390;-99.256;2023-05-23T05:55:12;78184.56;;;24.63;48.72
20955;BME280;10636;19.390;-99.256;2023-05-23T05:57:41;78174.53;;;24.64;48.79
20955;BME280;10636;19.390;-99.256;2023-05-23T06:00:10;78175.91;;;24.65;49.05
20955;BME280;10636;19.390;-99.256;2023-05-23T06:02:41;78171.22;;;24.65;48.94
20955;BME280;10636;19.390;-99.256;2023-05-23T06:05:10;78174.53;;;24.64;48.65
20955;BME280;10636;19.390;-99.256;2023-05-23T06:07:39;78162.94;;;24.59;49.18
20955;BME280;10636;19.390;-99.256;2023-05-23T06:10:10;78165.16;;;24.65;48.76
20955;BME280;10636;19.390;-99.256;2023-05-23T06:12:39;78167.16;;;24.64;48.97
20955;BME280;10636;19.390;-99.256;2023-05-23T06:15:08;78157.47;;;24.57;48.52
20955;BME280;10636;19.390;-99.256;2023-05-23T06:17:37;78153.66;;;24.62;48.41
20955;BME280;10636;19.390;-99.256;2023-05-23T06:20:06;78155.56;;;24.60;48.85
20955;BME280;10636;19.390;-99.256;2023-05-23T06:22:34;78150.22;;;24.60;49.27
20955;BME280;10636;19.390;-99.256;2023-05-23T06:25:05;78160.25;;;24.59;48.92
20955;BME280;10636;19.390;-99.256;2023-05-23T06:27:35;78152.91;;;24.60;48.70
20955;BME280;10636;19.390;-99.256;2023-05-23T06:30:04;78121.66;;;24.35;48.78
20955;BME280;10636;19.390;-99.256;2023-05-23T06:32:33;78159.47;;;24.57;48.79
20955;BME280;10636;19.390;-99.256;2023-05-23T06:35:02;78151.34;;;24.55;48.92
20955;BME280;10636;19.390;-99.256;2023-05-23T06:37:30;78157.38;;;24.55;48.77
20955;BME280;10636;19.390;-99.256;2023-05-23T06:39:59;78156.69;;;24.55;49.34
20955;BME280;10636;19.390;-99.256;2023-05-23T06:42:28;78158.00;;;24.54;48.64
20955;BME280;10636;19.390;-99.256;2023-05-23T06:44:58;78169.41;;;24.54;48.46
20955;BME280;10636;19.390;-99.256;2023-05-23T06:47:27;78177.47;;;24.54;48.57
20955;BME280;10636;19.390;-99.256;2023-05-23T06:49:55;78168.72;;;24.54;48.96
20955;BME280;10636;19.390;-99.256;2023-05-23T06:52:24;78168.03;;;24.53;49.21
20955;BME280;10636;19.390;-99.256;2023-05-23T06:54:52;56870.50;;;-143.84;100.00
20955;BME280;10636;19.390;-99.256;2023-05-23T06:57:21;56870.50;;;-143.84;100.00
20955;BME280;10636;19.390;-99.256;2023-05-23T06:59:49;56870.50;;;-143.84;100.00
20955;BME280;10636;19.390;-99.256;2023-05-23T07:02:19;56870.50;;;-143.84;100.00
20955;BME280;10636;19.390;-99.256;2023-05-23T07:04:47;56870.50;;;-143.84;100.00
20955;BME280;10636;19.390;-99.256;2023-05-23T07:07:16;56870.50;;;-143.84;100.00
20955;BME280;10636;19.390;-99.256;2023-05-23T07:09:44;56870.50;;;-143.84;100.00
20955;BME280;10636;19.390;-99.256;2023-05-23T07:12:13;56870.50;;;-143.84;100.00
20955;BME280;10636;19.390;-99.256;2023-05-23T07:14:41;56870.50;;;-143.84;100.00
20955;BME280;10636;19.390;-99.256;2023-05-23T07:17:10;56870.50;;;-143.84;100.00
20955;BME280;10636;19.390;-99.256;2023-05-23T07:19:40;56870.50;;;-143.84;100.00
20955;BME280;10636;19.390;-99.256;2023-05-23T07:22:08;56870.50;;;-143.84;100.00
20955;BME280;10636;19.390;-99.256;2023-05-23T07:24:37;56870.50;;;-143.84;100.00
20955;BME280;10636;19.390;-99.256;2023-05-23T07:27:06;56870.50;;;-143.84;100.00
20955;BME280;10636;19.390;-99.256;2023-05-23T07:29:35;56870.50;;;-143.84;100.00
20955;BME280;10636;19.390;-99.256;2023-05-23T07:32:03;56870.50;;;-143.84;100.00
20955;BME280;10636;19.390;-99.256;2023-05-23T07:34:32;56870.50;;;-143.84;100.00
20955;BME280;10636;19.390;-99.256;2023-05-23T07:37:02;56870.50;;;-143.84;100.00
20955;BME280;10636;19.390;-99.256;2023-05-23T07:39:30;56870.50;;;-143.84;100.00
20955;BME280;10636;19.390;-99.256;2023-05-23T07:41:59;56870.50;;;-143.84;100.00
20955;BME280;10636;19.390;-99.256;2023-05-23T07:44:27;56870.50;;;-143.84;100.00
20955;BME280;10636;19.390;-99.256;2023-05-23T07:46:56;56870.50;;;-143.84;100.00
20955;BME280;10636;19.390;-99.256;2023-05-23T07:49:24;56870.50;;;-143.84;100.00
20955;BME280;10636;19.390;-99.256;2023-05-23T07:51:53;56870.50;;;-143.84;100.00
20955;BME280;10636;19.390;-99.256;2023-05-23T07:54:23;56870.50;;;-143.84;100.00
20955;BME280;10636;19.390;-99.256;2023-05-23T07:56:52;56870.50;;;-143.84;100.00
20955;BME280;10636;19.390;-99.256;2023-05-23T07:59:21;56870.50;;;-143.84;100.00
20955;BME280;10636;19.390;-99.256;2023-05-23T08:01:49;56870.50;;;-143.84;100.00
20955;BME280;10636;19.390;-99.256;2023-05-23T08:04:18;56870.50;;;-143.84;100.00
20955;BME280;10636;19.390;-99.256;2023-05-23T08:06:46;56870.50;;;-143.84;100.00
20955;BME280;10636;19.390;-99.256;2023-05-23T08:09:15;56870.50;;;-143.84;100.00
20955;BME280;10636;19.390;-99.256;2023-05-23T08:11:45;56870.50;;;-143.84;100.00
20955;BME280;10636;19.390;-99.256;2023-05-23T08:14:14;56870.50;;;-143.84;100.00
20955;BME280;10636;19.390;-99.256;2023-05-23T08:16:42;56870.50;;;-143.84;100.00
20955;BME280;10636;19.390;-99.256;2023-05-23T08:19:11;56870.50;;;-143.84;100.00
20955;BME280;10636;19.390;-99.256;2023-05-23T08:21:39;56870.50;;;-143.84;100.00
20955;BME280;10636;19.390;-99.256;2023-05-23T08:24:08;56870.50;;;-143.84;100.00
20955;BME280;10636;19.390;-99.256;2023-05-23T08:26:38;56870.50;;;-143.84;100.00
20955;BME280;10636;19.390;-99.256;2023-05-23T08:29:09;56870.50;;;-143.84;100.00
20955;BME280;10636;19.390;-99.256;2023-05-23T08:31:37;56870.50;;;-143.84;100.00
20955;BME280;10636;19.390;-99.256;2023-05-23T08:34:06;56870.50;;;-143.84;100.00
20955;BME280;10636;19.390;-99.256;2023-05-23T08:36:34;56870.50;;;-143.84;100.00
20955;BME280;10636;19.390;-99.256;2023-05-23T08:39:03;56870.50;;;-143.84;100.00
20955;BME280;10636;19.390;-99.256;2023-05-23T08:41:31;56870.50;;;-143.84;100.00
20955;BME280;10636;19.390;-99.256;2023-05-23T08:44:00;56870.50;;;-143.84;100.00
20955;BME280;10636;19.390;-99.256;2023-05-23T08:46:31;56870.50;;;-143.84;100.00
20955;BME280;10636;19.390;-99.256;2023-05-23T08:49:01;56870.50;;;-143.84;100.00
20955;BME280;10636;19.390;-99.256;2023-05-23T08:51:30;56870.50;;;-143.84;100.00
20955;BME280;10636;19.390;-99.256;2023-05-23T08:53:59;56870.50;;;-143.84;100.00
20955;BME280;10636;19.390;-99.256;2023-05-23T08:56:28;56870.50;;;-143.84;100.00
20955;BME280;10636;19.390;-99.256;2023-05-23T08:58:57;56870.50;;;-143.84;100.00
20955;BME280;10636;19.390;-99.256;2023-05-23T09:01:25;56870.50;;;-143.84;100.00
20955;BME280;10636;19.390;-99.256;2023-05-23T09:03:56;56870.50;;;-143.84;100.00
20955;BME280;10636;19.390;-99.256;2023-05-23T09:06:30;56870.50;;;-143.84;100.00
20955;BME280;10636;19.390;-99.256;2023-05-23T09:08:59;56870.50;;;-143.84;100.00
20955;BME280;10636;19.390;-99.256;2023-05-23T09:11:27;56870.50;;;-143.84;100.00
20955;BME280;10636;19.390;-99.256;2023-05-23T09:13:56;56870.50;;;-143.84;100.00
20955;BME280;10636;19.390;-99.256;2023-05-23T09:16:31;56870.50;;;-143.84;100.00
20955;BME280;10636;19.390;-99.256;2023-05-23T09:19:09;56870.50;;;-143.84;100.00
20955;BME280;10636;19.390;-99.256;2023-05-23T09:21:42;56870.50;;;-143.84;100.00
20955;BME280;10636;19.390;-99.256;2023-05-23T09:24:11;56870.50;;;-143.84;100.00
20955;BME280;10636;19.390;-99.256;2023-05-23T09:26:40;56870.50;;;-143.84;100.00
20955;BME280;10636;19.390;-99.256;2023-05-23T09:29:08;56870.50;;;-143.84;100.00
20955;BME280;10636;19.390;-99.256;2023-05-23T09:31:37;56870.50;;;-143.84;100.00
20955;BME280;10636;19.390;-99.256;2023-05-23T09:34:07;56870.50;;;-143.84;100.00
20955;BME280;10636;19.390;-99.256;2023-05-23T09:36:40;56870.50;;;-143.84;100.00
20955;BME280;10636;19.390;-99.256;2023-05-23T09:39:11;56870.50;;;-143.84;100.00
20955;BME280;10636;19.390;-99.256;2023-05-23T09:41:39;56870.50;;;-143.84;100.00
20955;BME280;10636;19.390;-99.256;2023-05-23T09:44:08;56870.50;;;-143.84;100.00
20955;BME280;10636;19.390;-99.256;2023-05-23T09:46:37;56870.50;;;-143.84;100.00
20955;BME280;10636;19.390;-99.256;2023-05-23T09:49:16;56870.50;;;-143.84;100.00
20955;BME280;10636;19.390;-99.256;2023-05-23T09:51:57;56870.50;;;-143.84;100.00
20955;BME280;10636;19.390;-99.256;2023-05-23T09:54:25;56870.50;;;-143.84;100.00
20955;BME280;10636;19.390;-99.256;2023-05-23T09:56:54;56870.50;;;-143.84;100.00
20955;BME280;10636;19.390;-99.256;2023-05-23T09:59:24;56870.50;;;-143.84;100.00
20955;BME280;10636;19.390;-99.256;2023-05-23T10:01:56;56870.50;;;-143.84;100.00
20955;BME280;10636;19.390;-99.256;2023-05-23T10:04:29;56870.50;;;-143.84;100.00
20955;BME280;10636;19.390;-99.256;2023-05-23T10:07:02;56870.50;;;-143.84;100.00
20955;BME280;10636;19.390;-99.256;2023-05-23T10:09:34;56870.50;;;-143.84;100.00
20955;BME280;10636;19.390;-99.256;2023-05-23T10:12:38;56870.50;;;-143.84;100.00
20955;BME280;10636;19.390;-99.256;2023-05-23T10:15:09;56870.50;;;-143.84;100.00
20955;BME280;10636;19.390;-99.256;2023-05-23T10:20:30;56870.50;;;-143.84;100.00
20955;BME280;10636;19.390;-99.256;2023-05-23T10:23:00;56870.50;;;-143.84;100.00
20955;BME280;10636;19.390;-99.256;2023-05-23T10:25:30;56870.50;;;-143.84;100.00
20955;BME280;10636;19.390;-99.256;2023-05-23T10:28:01;56870.50;;;-143.84;100.00
20955;BME280;10636;19.390;-99.256;2023-05-23T10:30:30;56870.50;;;-143.84;100.00
20955;BME280;10636;19.390;-99.256;2023-05-23T10:33:00;56870.50;;;-143.84;100.00
20955;BME280;10636;19.390;-99.256;2023-05-23T10:35:43;56870.50;;;-143.84;100.00
20955;BME280;10636;19.390;-99.256;2023-05-23T10:38:27;56870.50;;;-143.84;100.00
20955;BME280;10636;19.390;-99.256;2023-05-23T10:41:05;56870.50;;;-143.84;100.00
20955;BME280;10636;19.390;-99.256;2023-05-23T10:43:41;56870.50;;;-143.84;100.00
20955;BME280;10636;19.390;-99.256;2023-05-23T10:46:14;56870.50;;;-143.84;100.00
20955;BME280;10636;19.390;-99.256;2023-05-23T10:48:43;56870.50;;;-143.84;100.00
20955;BME280;10636;19.390;-99.256;2023-05-23T10:51:14;56870.50;;;-143.84;100.00
20955;BME280;10636;19.390;-99.256;2023-05-23T10:53:43;56870.50;;;-143.84;100.00
20955;BME280;10636;19.390;-99.256;2023-05-23T10:56:19;56870.50;;;-143.84;100.00
20955;BME280;10636;19.390;-99.256;2023-05-23T10:58:52;56870.50;;;-143.84;100.00
20955;BME280;10636;19.390;-99.256;2023-05-23T11:01:21;56870.50;;;-143.84;100.00
20955;BME280;10636;19.390;-99.256;2023-05-23T11:03:51;56870.50;;;-143.84;100.00
20955;BME280;10636;19.390;-99.256;2023-05-23T11:06:32;56870.50;;;-143.84;100.00
20955;BME280;10636;19.390;-99.256;2023-05-23T11:09:03;56870.50;;;-143.84;100.00
20955;BME280;10636;19.390;-99.256;2023-05-23T11:11:53;56870.50;;;-143.84;100.00
20955;BME280;10636;19.390;-99.256;2023-05-23T11:14:52;56870.50;;;-143.84;100.00
20955;BME280;10636;19.390;-99.256;2023-05-23T11:17:30;56870.50;;;-143.84;100.00
20955;BME280;10636;19.390;-99.256;2023-05-23T11:20:04;56870.50;;;-143.84;100.00
20955;BME280;10636;19.390;-99.256;2023-05-23T11:22:34;56870.50;;;-143.84;100.00
20955;BME280;10636;19.390;-99.256;2023-05-23T11:25:06;56870.50;;;-143.84;100.00
20955;BME280;10636;19.390;-99.256;2023-05-23T11:27:37;56870.50;;;-143.84;100.00
20955;BME280;10636;19.390;-99.256;2023-05-23T11:30:07;56870.50;;;-143.84;100.00
20955;BME280;10636;19.390;-99.256;2023-05-23T11:32:38;56870.50;;;-143.84;100.00
20955;BME280;10636;19.390;-99.256;2023-05-23T11:35:08;56870.50;;;-143.84;100.00
20955;BME280;10636;19.390;-99.256;2023-05-23T11:37:39;56870.50;;;-143.84;100.00
20955;BME280;10636;19.390;-99.256;2023-05-23T11:40:28;56870.50;;;-143.84;100.00
20955;BME280;10636;19.390;-99.256;2023-05-23T11:42:57;56870.50;;;-143.84;100.00
20955;BME280;10636;19.390;-99.256;2023-05-23T11:45:27;56870.50;;;-143.84;100.00
20955;BME280;10636;19.390;-99.256;2023-05-23T11:47:57;56870.50;;;-143.84;100.00
20955;BME280;10636;19.390;-99.256;2023-05-23T11:50:25;56870.50;;;-143.84;100.00
20955;BME280;10636;19.390;-99.256;2023-05-23T11:52:56;56870.50;;;-143.84;100.00
20955;BME280;10636;19.390;-99.256;2023-05-23T11:55:27;56870.50;;;-143.84;100.00
20955;BME280;10636;19.390;-99.256;2023-05-23T11:57:55;56870.50;;;-143.84;100.00
20955;BME280;10636;19.390;-99.256;2023-05-23T12:00:24;56870.50;;;-143.84;100.00
20955;BME280;10636;19.390;-99.256;2023-05-23T12:02:53;56870.50;;;-143.84;100.00
20955;BME280;10636;19.390;-99.256;2023-05-23T12:05:21;56870.50;;;-143.84;100.00
20955;BME280;10636;19.390;-99.256;2023-05-23T12:07:50;56870.50;;;-143.84;100.00
20955;BME280;10636;19.390;-99.256;2023-05-23T12:10:20;56870.50;;;-143.84;100.00
20955;BME280;10636;19.390;-99.256;2023-05-23T12:12:50;56870.50;;;-143.84;100.00
20955;BME280;10636;19.390;-99.256;2023-05-23T12:15:24;56870.50;;;-143.84;100.00
20955;BME280;10636;19.390;-99.256;2023-05-23T12:17:54;56870.50;;;-143.84;100.00
20955;BME280;10636;19.390;-99.256;2023-05-23T12:20:26;56870.50;;;-143.84;100.00
20955;BME280;10636;19.390;-99.256;2023-05-23T12:22:57;56870.50;;;-143.84;100.00
20955;BME280;10636;19.390;-99.256;2023-05-23T12:25:27;56870.50;;;-143.84;100.00
20955;BME280;10636;19.390;-99.256;2023-05-23T12:27:56;56870.50;;;-143.84;100.00
20955;BME280;10636;19.390;-99.256;2023-05-23T12:30:25;56870.50;;;-143.84;100.00
20955;BME280;10636;19.390;-99.256;2023-05-23T12:32:56;56870.50;;;-143.84;100.00
20955;BME280;10636;19.390;-99.256;2023-05-23T12:35:25;56870.50;;;-143.84;100.00
20955;BME280;10636;19.390;-99.256;2023-05-23T12:37:56;56870.50;;;-143.84;100.00
20955;BME280;10636;19.390;-99.256;2023-05-23T12:40:26;56870.50;;;-143.84;100.00
20955;BME280;10636;19.390;-99.256;2023-05-23T12:42:55;56870.50;;;-143.84;100.00
20955;BME280;10636;19.390;-99.256;2023-05-23T12:45:31;56870.50;;;-143.84;100.00